createdAt,value
2023-09-15T00:03:46.203Z,38.07
2023-09-15T00:08:48.727Z,37.20
2023-09-15T00:13:52.089Z,37.80
2023-09-15T00:18:54.235Z,36.60
2023-09-15T00:23:56.370Z,36.60
2023-09-15T00:28:58.536Z,37.03
2023-09-15T00:34:00.692Z,37.10
2023-09-15T00:39:03.086Z,37.37
2023-09-15T00:44:05.451Z,37.30
2023-09-15T00:49:07.913Z,37.37
2023-09-15T00:54:13.310Z,37.23
2023-09-15T00:59:15.917Z,37.13
2023-09-15T01:04:19.571Z,36.77
2023-09-15T01:09:24.026Z,37.17
2023-09-15T01:14:27.270Z,36.97
2023-09-15T01:19:44.084Z,36.83
2023-09-15T01:25:32.200Z,37.17
2023-09-15T01:30:35.108Z,36.47
2023-09-15T01:35:37.304Z,36.43
2023-09-15T01:40:39.547Z,36.93
2023-09-15T01:45:41.716Z,36.33
2023-09-15T01:50:44.934Z,36.40
2023-09-15T01:55:49.894Z,35.93
2023-09-15T02:00:53.419Z,35.73
2023-09-15T02:05:57.227Z,35.17
2023-09-15T02:10:59.558Z,35.33
2023-09-15T02:16:01.946Z,35.80
2023-09-15T02:21:05.070Z,35.30
2023-09-15T02:26:07.551Z,35.17
2023-09-15T02:31:09.970Z,36.17
2023-09-15T02:36:12.682Z,35.70
2023-09-15T02:41:15.542Z,35.43
2023-09-15T02:46:18.193Z,35.83
2023-09-15T02:51:20.627Z,35.80
2023-09-15T02:56:25.290Z,36.27
2023-09-15T03:01:28.231Z,36.20
2023-09-15T03:06:30.851Z,35.77
2023-09-15T03:11:33.199Z,36.07
2023-09-15T03:16:45.387Z,35.93
2023-09-15T03:21:48.046Z,35.80
2023-09-15T03:26:51.152Z,34.80
2023-09-15T03:31:53.630Z,35.57
2023-09-15T03:36:55.980Z,36.03
2023-09-15T03:41:58.260Z,36.50
2023-09-15T03:47:01.957Z,36.10
2023-09-15T03:52:04.687Z,37.10
2023-09-15T03:57:06.829Z,35.67
2023-09-15T04:02:10.018Z,35.23
2023-09-15T04:07:13.926Z,35.37
2023-09-15T04:12:16.128Z,36.03
2023-09-15T04:17:19.319Z,36.60
2023-09-15T04:22:22.769Z,35.07
2023-09-15T04:27:24.920Z,34.67
2023-09-15T04:32:29.946Z,34.33
2023-09-15T04:37:32.449Z,34.23
2023-09-15T04:42:35.161Z,34.73
2023-09-15T04:47:39.032Z,35.33
2023-09-15T04:53:08.521Z,35.50
2023-09-15T04:58:12.901Z,35.40
2023-09-15T05:03:17.246Z,36.20
2023-09-15T05:08:19.629Z,36.33
2023-09-15T05:13:21.930Z,35.73
2023-09-15T05:18:24.285Z,35.97
2023-09-15T05:23:26.543Z,36.77
2023-09-15T05:28:28.726Z,36.67
2023-09-15T05:33:31.003Z,35.93
2023-09-15T05:38:33.299Z,36.50
2023-09-15T05:43:35.617Z,36.30
2023-09-15T05:48:37.850Z,37.03
2023-09-15T05:53:40.059Z,37.97
2023-09-15T05:58:42.871Z,36.80
2023-09-15T06:03:45.101Z,37.77
2023-09-15T06:08:47.513Z,36.37
2023-09-15T06:13:50.085Z,36.70
2023-09-15T06:18:52.276Z,36.67
2023-09-15T06:23:54.593Z,36.50
2023-09-15T06:28:58.189Z,35.13
2023-09-15T06:34:00.558Z,36.13
2023-09-15T06:39:03.360Z,36.27
2023-09-15T06:44:06.019Z,36.40
2023-09-15T06:49:09.598Z,36.40
2023-09-15T06:54:13.507Z,37.47
2023-09-15T06:59:15.748Z,37.60
2023-09-15T07:04:18.908Z,36.63
2023-09-15T07:09:21.603Z,36.67
2023-09-15T07:14:23.756Z,36.07
2023-09-15T07:19:26.038Z,37.20
2023-09-15T07:24:28.231Z,37.43
2023-09-15T07:29:31.143Z,37.47
2023-09-15T07:34:33.347Z,37.80
2023-09-15T07:39:35.599Z,37.67
2023-09-15T07:44:39.117Z,37.60
2023-09-15T07:49:42.004Z,37.73
2023-09-15T07:54:44.364Z,38.60
2023-09-15T07:59:47.307Z,38.90
2023-09-15T08:04:50.515Z,39.27
2023-09-15T08:09:53.434Z,39.40
2023-09-15T08:14:55.614Z,39.63
2023-09-15T08:19:58.113Z,39.90
2023-09-15T08:25:02.514Z,40.70
2023-09-15T08:30:06.826Z,40.97
2023-09-15T08:35:09.308Z,40.47
2023-09-15T08:40:13.663Z,41.43
2023-09-15T08:45:16.562Z,42.07
2023-09-15T08:50:19.932Z,41.37
2023-09-15T08:55:22.442Z,41.17
2023-09-15T09:00:25.334Z,41.03
2023-09-15T09:05:32.226Z,41.93
2023-09-15T09:10:34.594Z,42.07
2023-09-15T09:15:38.653Z,41.83
2023-09-15T09:20:41.365Z,42.83
2023-09-15T09:25:44.139Z,41.70
2023-09-15T09:30:46.723Z,42.20
2023-09-15T09:35:49.992Z,42.37
2023-09-15T09:40:53.631Z,41.80
2023-09-15T09:45:56.507Z,40.57
2023-09-15T09:50:59.879Z,40.80
2023-09-15T09:56:04.552Z,41.63
2023-09-15T10:01:08.013Z,41.73
2023-09-15T10:06:11.400Z,40.30
2023-09-15T10:11:14.542Z,40.90
2023-09-15T10:16:17.985Z,41.33
2023-09-15T10:21:21.064Z,41.47
2023-09-15T10:26:24.227Z,41.93
2023-09-15T10:31:30.195Z,43.07
2023-09-15T10:41:37.856Z,41.73
2023-09-15T10:46:41.993Z,42.50
2023-09-15T10:51:53.654Z,42.67
2023-09-15T10:56:56.837Z,42.40
2023-09-15T11:02:00.014Z,42.17
2023-09-15T11:07:06.313Z,42.77
2023-09-15T11:12:09.545Z,43.53
2023-09-15T11:17:12.331Z,43.10
2023-09-15T11:22:15.069Z,42.87
2023-09-15T11:27:17.806Z,47.03
2023-09-15T11:32:21.011Z,43.07
2023-09-15T11:37:23.616Z,42.90
2023-09-15T11:42:25.943Z,42.60
2023-09-15T11:47:32.477Z,43.43
2023-09-15T11:52:34.993Z,43.00
2023-09-15T11:57:37.453Z,42.40
2023-09-15T12:02:39.719Z,43.03
2023-09-15T12:07:44.755Z,42.97
2023-09-15T12:12:47.044Z,43.20
2023-09-15T12:17:49.266Z,42.67
2023-09-15T12:22:55.049Z,42.23
2023-09-15T12:27:57.713Z,42.83
2023-09-15T12:33:00.434Z,42.20
2023-09-15T12:38:03.444Z,43.20
2023-09-15T12:43:07.244Z,42.63
2023-09-15T12:48:10.527Z,43.83
2023-09-15T12:53:13.208Z,42.93
2023-09-15T12:58:15.998Z,42.87
2023-09-15T13:03:22.500Z,43.00
2023-09-15T13:08:25.581Z,42.00
2023-09-15T13:13:28.161Z,41.90
2023-09-15T13:18:30.707Z,42.70
2023-09-15T13:23:33.320Z,42.57
2023-09-15T13:28:36.109Z,42.53
2023-09-15T13:33:38.672Z,44.50
2023-09-15T13:38:42.385Z,44.70
2023-09-15T13:43:45.021Z,44.03
2023-09-15T13:48:47.889Z,42.87
2023-09-15T13:53:50.943Z,43.40
2023-09-15T13:58:55.200Z,42.83
2023-09-15T14:03:58.919Z,42.03
2023-09-15T14:09:01.497Z,44.70
2023-09-15T14:14:04.093Z,43.67
2023-09-15T14:19:06.671Z,43.60
2023-09-15T14:24:09.313Z,44.27
2023-09-15T14:29:14.430Z,45.07
2023-09-15T14:34:17.876Z,44.73
2023-09-15T14:39:20.520Z,43.57
2023-09-15T14:44:23.523Z,43.70
2023-09-15T14:49:27.381Z,42.90
2023-09-15T14:54:30.118Z,42.87
2023-09-15T14:59:32.687Z,42.80
2023-09-15T15:04:35.462Z,43.33
2023-09-15T15:09:38.592Z,43.43
2023-09-15T15:14:41.151Z,43.63
2023-09-15T15:19:46.970Z,42.80
2023-09-15T15:24:49.815Z,42.70
2023-09-15T15:29:52.923Z,43.57
2023-09-15T15:34:55.273Z,42.93
2023-09-15T15:39:58.388Z,43.53
2023-09-15T15:45:00.746Z,42.93
2023-09-15T15:50:02.956Z,43.70
2023-09-15T15:55:06.064Z,43.50
2023-09-15T16:00:09.384Z,42.93
2023-09-15T16:05:13.222Z,44.30
2023-09-15T16:10:16.173Z,43.53
2023-09-15T16:15:18.783Z,44.03
2023-09-15T16:20:22.305Z,43.23
2023-09-15T16:25:24.816Z,44.17
2023-09-15T16:30:27.399Z,43.47
2023-09-15T16:35:30.041Z,44.13
2023-09-15T16:40:35.354Z,43.10
2023-09-15T16:45:37.925Z,43.10
2023-09-15T16:50:40.635Z,42.37
2023-09-15T16:55:50.777Z,42.83
2023-09-15T17:00:55.883Z,42.80
2023-09-15T17:05:58.536Z,43.03
2023-09-15T17:11:03.306Z,42.80
2023-09-15T17:16:05.941Z,42.80
2023-09-15T17:21:08.667Z,43.33
2023-09-15T17:26:11.806Z,42.87
2023-09-15T17:31:14.540Z,41.70
2023-09-15T17:36:17.137Z,43.17
2023-09-15T17:41:19.431Z,41.73
2023-09-15T17:46:21.620Z,40.00
2023-09-15T17:51:26.171Z,41.70
2023-09-15T17:56:28.365Z,40.57
2023-09-15T18:01:30.624Z,40.13
2023-09-15T18:06:32.810Z,38.80
2023-09-15T18:11:36.022Z,38.90
2023-09-15T18:16:38.203Z,39.37
2023-09-15T18:21:40.430Z,38.80
2023-09-15T18:26:42.735Z,39.23
2023-09-15T18:31:45.872Z,39.10
2023-09-15T18:36:48.093Z,38.70
2023-09-15T18:41:50.460Z,38.63
2023-09-15T18:46:53.794Z,37.97
2023-09-15T18:51:56.007Z,38.57
2023-09-15T18:56:58.371Z,38.53
2023-09-15T19:02:00.554Z,38.50
2023-09-15T19:07:02.774Z,40.97
2023-09-15T19:12:05.581Z,39.40
2023-09-15T19:17:07.781Z,40.00
2023-09-15T19:22:09.984Z,39.43
2023-09-15T19:27:12.169Z,40.20
2023-09-15T19:32:14.361Z,39.37
2023-09-15T19:37:16.612Z,39.43
2023-09-15T19:42:18.872Z,40.07
2023-09-15T19:47:21.017Z,39.97
2023-09-15T19:52:26.224Z,38.73
2023-09-15T19:57:47.990Z,38.47
2023-09-15T20:02:52.876Z,37.97
2023-09-15T20:07:56.907Z,38.13
2023-09-15T20:12:59.088Z,38.17
2023-09-15T20:18:01.630Z,37.63
2023-09-15T20:23:04.759Z,38.37
2023-09-15T20:28:07.043Z,38.00
2023-09-15T20:33:09.326Z,38.67
2023-09-15T20:38:11.626Z,39.50
2023-09-15T20:43:14.425Z,38.83
2023-09-15T20:48:16.658Z,38.87
2023-09-15T20:53:18.865Z,39.83
2023-09-15T20:58:21.086Z,38.13
2023-09-15T21:03:23.346Z,38.63
2023-09-15T21:08:25.561Z,37.37
2023-09-15T21:13:27.739Z,36.80
2023-09-15T21:18:30.077Z,37.00
2023-09-15T21:23:32.234Z,36.93
2023-09-15T21:28:34.514Z,37.00
2023-09-15T21:33:38.721Z,37.47
2023-09-15T21:38:41.086Z,37.43
2023-09-15T21:43:43.426Z,37.63
2023-09-15T21:48:45.771Z,35.57
2023-09-15T21:53:48.144Z,36.90
2023-09-15T21:58:51.004Z,36.17
2023-09-15T22:03:53.442Z,36.73
2023-09-15T22:08:55.969Z,37.23
2023-09-15T22:13:58.240Z,36.90
2023-09-15T22:19:00.524Z,36.93
2023-09-15T22:24:02.725Z,37.53
2023-09-15T22:29:05.206Z,37.77
2023-09-15T22:34:08.056Z,38.40
2023-09-15T22:39:10.374Z,38.33
2023-09-15T22:44:12.502Z,38.10
2023-09-15T22:49:19.214Z,38.33
2023-09-15T22:54:21.381Z,38.07
2023-09-15T22:59:23.604Z,38.37
2023-09-15T23:04:25.807Z,38.57
2023-09-15T23:09:28.159Z,37.80
2023-09-15T23:14:30.334Z,38.10
2023-09-15T23:19:35.622Z,37.83
2023-09-15T23:24:40.617Z,38.23
2023-09-15T23:29:42.870Z,37.87
2023-09-15T23:34:45.365Z,37.93
2023-09-15T23:39:47.721Z,38.07
2023-09-15T23:44:49.856Z,38.30
2023-09-15T23:49:53.438Z,36.90
2023-09-15T23:54:55.663Z,36.47
2023-09-15T23:59:58.234Z,36.77
